createdAt,value
2023-05-04T00:00:35.161Z,95461.06
2023-05-04T00:03:03.497Z,95456.59
2023-05-04T00:05:31.883Z,95465.91
2023-05-04T00:08:00.196Z,95457.28
2023-05-04T00:10:29.184Z,95457.69
2023-05-04T00:12:57.428Z,95441.06
2023-05-04T00:15:26.113Z,95442.56
2023-05-04T00:17:55.837Z,95430.84
2023-05-04T00:20:24.223Z,95442.47
2023-05-04T00:22:52.501Z,95440.75
2023-05-04T00:25:20.777Z,95441.50
2023-05-04T00:27:49.051Z,95430.50
2023-05-04T00:30:17.532Z,95436.41
2023-05-04T00:32:46.611Z,95376.97
2023-05-04T00:35:16.437Z,95423.00
2023-05-04T00:37:46.149Z,95429.34
2023-05-04T00:40:14.721Z,95421.69
2023-05-04T00:42:43.012Z,95419.97
2023-05-04T00:45:12.252Z,95414.56
2023-05-04T00:47:40.815Z,95427.53
2023-05-04T00:50:10.376Z,95422.56
2023-05-04T00:52:41.459Z,95429.03
2023-05-04T00:55:10.997Z,95411.75
2023-05-04T00:57:39.983Z,95424.00
2023-05-04T01:00:10.818Z,95424.75
2023-05-04T01:02:39.088Z,95426.25
2023-05-04T01:05:09.237Z,95357.91
2023-05-04T01:07:49.140Z,95432.66
2023-05-04T01:10:23.959Z,95418.47
2023-05-04T01:12:57.634Z,95424.00
2023-05-04T01:15:26.768Z,95429.84
2023-05-04T01:17:55.071Z,95427.56
2023-05-04T01:20:23.334Z,95424.88
2023-05-04T01:22:53.165Z,95420.78
2023-05-04T01:25:21.794Z,95439.63
2023-05-04T01:27:57.964Z,95431.09
2023-05-04T01:30:31.683Z,95429.78
2023-05-04T01:33:01.941Z,95434.28
2023-05-04T01:35:30.493Z,95438.56
2023-05-04T01:38:00.742Z,95438.31
2023-05-04T01:40:29.148Z,95414.31
2023-05-04T01:42:57.419Z,95434.31
2023-05-04T01:45:25.707Z,95433.09
2023-05-04T01:47:53.952Z,95432.75
2023-05-04T01:50:22.152Z,95432.16
2023-05-04T01:52:50.934Z,95435.28
2023-05-04T01:55:20.629Z,95431.75
2023-05-04T01:57:48.848Z,95433.34
2023-05-04T02:00:17.464Z,95416.47
2023-05-04T02:02:45.815Z,95424.31
2023-05-04T02:05:14.267Z,95419.31
2023-05-04T02:07:42.519Z,95414.09
2023-05-04T02:10:11.513Z,95430.09
2023-05-04T02:12:43.194Z,95423.38
2023-05-04T02:15:12.470Z,95323.59
2023-05-04T02:17:40.821Z,95430.38
2023-05-04T02:20:10.816Z,95425.59
2023-05-04T02:22:39.184Z,95418.53
2023-05-04T02:25:08.562Z,95427.63
2023-05-04T02:27:36.940Z,95427.72
2023-05-04T02:30:07.944Z,95428.59
2023-05-04T02:32:36.527Z,95428.06
2023-05-04T02:35:05.056Z,95430.50
2023-05-04T02:37:33.367Z,95431.19
2023-05-04T02:40:01.990Z,95429.03
2023-05-04T02:42:30.383Z,95436.25
2023-05-04T02:44:58.697Z,95440.91
2023-05-04T02:47:28.377Z,95437.69
2023-05-04T02:49:56.624Z,95443.78
2023-05-04T02:52:24.894Z,95447.00
2023-05-04T02:54:53.367Z,95441.66
2023-05-04T02:57:21.734Z,95450.13
2023-05-04T02:59:50.012Z,95445.78
2023-05-04T03:02:18.340Z,95427.28
2023-05-04T03:04:47.998Z,95435.19
2023-05-04T03:07:16.221Z,95429.94
2023-05-04T03:09:47.408Z,95424.28
2023-05-04T03:12:16.136Z,95445.00
2023-05-04T03:14:44.471Z,95440.09
2023-05-04T03:17:12.763Z,95443.00
2023-05-04T03:19:41.219Z,95450.19
2023-05-04T03:22:10.854Z,95450.47
2023-05-04T03:24:40.078Z,95455.09
2023-05-04T03:27:09.104Z,95446.50
2023-05-04T03:29:37.382Z,95455.22
2023-05-04T03:32:06.164Z,95459.50
2023-05-04T03:34:34.521Z,95458.13
2023-05-04T03:37:02.986Z,95468.28
2023-05-04T03:39:32.708Z,95466.22
2023-05-04T03:42:01.106Z,95469.78
2023-05-04T03:44:29.413Z,95471.53
2023-05-04T03:46:57.844Z,95452.44
2023-05-04T03:49:26.282Z,95480.53
2023-05-04T03:51:54.505Z,95481.47
2023-05-04T03:54:22.810Z,95491.16
2023-05-04T03:56:52.434Z,95486.31
2023-05-04T03:59:20.656Z,95477.28
2023-05-04T04:01:49.037Z,95501.16
2023-05-04T04:04:17.386Z,95489.66
2023-05-04T04:06:46.043Z,95482.84
2023-05-04T04:09:14.355Z,95490.44
2023-05-04T04:11:42.784Z,95506.66
2023-05-04T04:14:12.543Z,95454.34
2023-05-04T04:16:40.948Z,95517.97
2023-05-04T04:19:09.751Z,95522.38
2023-05-04T04:21:38.252Z,95509.56
2023-05-04T04:24:07.199Z,95511.19
2023-05-04T04:26:35.696Z,95514.75
2023-05-04T04:29:05.053Z,95515.03
2023-05-04T04:31:34.722Z,95511.34
2023-05-04T04:34:03.109Z,95519.25
2023-05-04T04:36:31.467Z,95520.84
2023-05-04T04:38:59.804Z,95530.00
2023-05-04T04:41:28.333Z,95532.63
2023-05-04T04:43:56.955Z,95515.41
2023-05-04T04:46:25.219Z,95528.31
2023-05-04T04:48:55.725Z,95527.94
2023-05-04T04:51:24.127Z,95527.81
2023-05-04T04:53:52.487Z,95523.56
2023-05-04T04:56:21.732Z,95540.19
2023-05-04T04:58:51.118Z,95536.44
2023-05-04T05:01:19.525Z,95534.13
2023-05-04T05:03:49.257Z,95527.47
2023-05-04T05:06:18.941Z,95529.69
2023-05-04T05:08:47.181Z,95531.63
2023-05-04T05:11:15.435Z,95522.69
2023-05-04T05:13:43.703Z,95529.56
2023-05-04T05:16:11.978Z,95529.72
2023-05-04T05:18:40.299Z,95536.38
2023-05-04T05:21:09.471Z,95529.16
2023-05-04T05:23:39.189Z,95489.09
2023-05-04T05:26:07.659Z,95533.97
2023-05-04T05:28:35.890Z,95527.22
2023-05-04T05:31:04.339Z,95526.81
2023-05-04T05:33:32.837Z,95537.81
2023-05-04T05:36:01.175Z,95534.16
2023-05-04T05:38:29.392Z,95534.78
2023-05-04T05:40:59.137Z,95544.19
2023-05-04T05:43:27.490Z,95553.63
2023-05-04T05:45:55.719Z,95542.72
2023-05-04T05:48:24.184Z,95551.06
2023-05-04T05:50:52.434Z,95550.50
2023-05-04T05:53:20.826Z,95550.69
2023-05-04T05:55:49.230Z,95549.50
2023-05-04T05:58:18.989Z,95536.44
2023-05-04T06:00:47.557Z,95557.00
2023-05-04T06:03:16.042Z,95552.03
2023-05-04T06:05:44.343Z,95553.00
2023-05-04T06:08:12.649Z,95556.47
2023-05-04T06:10:40.977Z,95550.41
2023-05-04T06:13:09.354Z,95559.56
2023-05-04T06:15:39.203Z,95549.91
2023-05-04T06:18:07.745Z,95551.97
2023-05-04T06:20:36.224Z,95540.03
2023-05-04T06:23:04.578Z,95539.72
2023-05-04T06:25:32.897Z,95551.47
2023-05-04T06:28:01.304Z,95552.75
2023-05-04T06:30:29.659Z,95558.19
2023-05-04T06:32:59.539Z,95498.72
2023-05-04T06:35:29.869Z,95548.38
2023-05-04T06:37:58.647Z,95548.63
2023-05-04T06:40:27.824Z,95554.91
2023-05-04T06:42:56.120Z,95551.91
2023-05-04T06:45:24.438Z,95554.41
2023-05-04T06:47:53.662Z,95557.56
2023-05-04T06:50:24.138Z,95560.63
2023-05-04T06:52:52.939Z,95559.88
2023-05-04T06:55:21.337Z,95555.28
2023-05-04T06:57:49.620Z,95556.41
2023-05-04T07:00:18.783Z,95556.47
2023-05-04T07:02:47.237Z,95553.72
2023-05-04T07:05:15.580Z,95554.19
2023-05-04T07:07:45.339Z,95559.47
2023-05-04T07:10:15.142Z,95555.50
2023-05-04T07:12:43.567Z,95559.81
2023-05-04T07:15:12.507Z,95558.16
2023-05-04T07:17:41.458Z,95556.44
2023-05-04T07:20:10.557Z,95566.13
2023-05-04T07:22:38.922Z,95563.00
2023-05-04T07:25:09.960Z,95566.50
2023-05-04T07:27:43.903Z,95565.16
2023-05-04T07:30:12.712Z,95574.19
2023-05-04T07:32:41.155Z,95573.91
2023-05-04T07:35:10.184Z,95553.13
2023-05-04T07:37:38.404Z,95569.53
2023-05-04T07:40:09.709Z,95568.91
2023-05-04T07:42:38.161Z,95509.53
2023-05-04T07:45:08.574Z,95564.78
2023-05-04T07:47:36.985Z,95568.47
2023-05-04T07:50:06.024Z,95571.59
2023-05-04T07:52:34.854Z,95571.00
2023-05-04T07:55:03.198Z,95571.22
2023-05-04T07:57:33.682Z,95580.72
2023-05-04T08:00:02.018Z,95576.50
2023-05-04T08:02:30.454Z,95577.19
2023-05-04T08:04:58.887Z,95575.22
2023-05-04T08:07:27.192Z,95578.75
2023-05-04T08:09:57.026Z,95580.34
2023-05-04T08:12:27.132Z,95586.28
2023-05-04T08:14:56.849Z,95594.19
2023-05-04T08:17:25.180Z,95550.28
2023-05-04T08:19:53.505Z,95583.28
2023-05-04T08:22:21.798Z,95581.47
2023-05-04T08:24:50.298Z,95512.72
2023-05-04T08:27:18.615Z,95580.44
2023-05-04T08:29:46.898Z,95530.25
2023-05-04T08:32:17.622Z,95580.00
2023-05-04T08:34:45.932Z,95555.84
2023-05-04T08:37:14.394Z,95580.19
2023-05-04T08:39:42.855Z,95513.34
2023-05-04T08:42:11.950Z,95578.75
2023-05-04T08:44:41.591Z,95524.06
2023-05-04T08:47:11.239Z,95578.25
2023-05-04T08:49:40.932Z,95570.94
2023-05-04T08:52:11.154Z,95558.47
2023-05-04T08:54:42.919Z,95576.03
2023-05-04T08:57:12.034Z,95566.91
2023-05-04T08:59:41.804Z,95571.16
2023-05-04T09:02:14.860Z,95568.94
2023-05-04T09:04:44.596Z,95565.00
2023-05-04T09:07:13.269Z,95549.38
2023-05-04T09:09:41.755Z,95562.00
2023-05-04T09:12:10.133Z,95560.28
2023-05-04T09:14:38.483Z,95553.00
2023-05-04T09:17:14.885Z,95561.53
2023-05-04T09:19:45.010Z,95566.28
2023-05-04T09:22:17.365Z,95556.16
2023-05-04T09:24:46.612Z,95559.47
2023-05-04T09:27:18.158Z,95564.84
2023-05-04T09:29:54.935Z,95558.34
2023-05-04T09:32:24.265Z,95538.63
2023-05-04T09:34:55.648Z,95552.63
2023-05-04T09:37:24.185Z,95553.47
2023-05-04T09:39:55.427Z,95546.28
2023-05-04T09:42:24.427Z,95549.03
2023-05-04T09:45:11.178Z,95549.06
2023-05-04T09:47:43.630Z,95534.59
2023-05-04T09:50:20.741Z,95542.47
2023-05-04T09:52:50.403Z,95534.88
2023-05-04T09:55:20.236Z,95522.94
2023-05-04T09:57:50.349Z,95537.50
2023-05-04T10:00:19.871Z,95533.81
2023-05-04T10:03:07.224Z,95528.19
2023-05-04T10:05:40.103Z,95524.25
2023-05-04T10:08:10.006Z,95519.97
2023-05-04T10:10:40.664Z,95518.63
2023-05-04T10:13:09.250Z,95518.88
2023-05-04T10:15:51.656Z,95523.84
2023-05-04T10:18:31.409Z,95509.69
2023-05-04T10:21:18.437Z,95511.91
2023-05-04T10:24:16.942Z,95507.75
2023-05-04T10:26:59.777Z,95496.72
2023-05-04T10:29:30.301Z,95488.09
2023-05-04T10:31:59.754Z,95492.19
2023-05-04T10:34:30.018Z,95488.28
2023-05-04T10:37:00.346Z,95482.34
2023-05-04T10:39:30.951Z,95497.66
2023-05-04T10:42:00.638Z,95485.44
2023-05-04T10:44:29.768Z,95484.84
2023-05-04T10:46:59.892Z,95484.38
2023-05-04T10:49:28.549Z,95473.25
2023-05-04T10:52:09.538Z,95418.91
2023-05-04T10:54:38.460Z,95462.50
2023-05-04T10:57:08.249Z,95463.06
2023-05-04T10:59:37.246Z,95434.50
2023-05-04T11:02:06.837Z,95458.41
2023-05-04T11:04:35.724Z,95460.97
2023-05-04T11:07:06.582Z,95468.44
2023-05-04T11:09:40.857Z,95473.31
2023-05-04T11:12:11.677Z,95479.66
2023-05-04T11:14:43.295Z,95452.28
2023-05-04T11:19:52.909Z,95468.34
2023-05-04T11:22:21.333Z,95447.38
2023-05-04T11:24:51.585Z,95455.25
2023-05-04T11:27:24.394Z,95459.88
2023-05-04T11:29:57.154Z,95432.38
2023-05-04T11:32:35.606Z,95463.94
2023-05-04T11:35:05.462Z,95465.19
2023-05-04T11:37:40.614Z,95463.81
2023-05-04T11:40:15.414Z,95452.59
2023-05-04T11:42:44.436Z,95454.66
2023-05-04T11:45:17.125Z,95464.28
2023-05-04T11:47:46.213Z,95466.94
2023-05-04T11:50:16.973Z,95454.53
2023-05-04T11:52:45.547Z,95454.44
2023-05-04T11:55:27.439Z,95406.97
2023-05-04T11:57:59.772Z,95466.16
2023-05-04T12:00:39.941Z,95463.53
2023-05-04T12:03:09.629Z,95456.38
2023-05-04T12:05:38.432Z,95393.38
2023-05-04T12:08:12.492Z,95457.19
2023-05-04T12:10:42.258Z,95450.47
2023-05-04T12:13:19.500Z,95450.78
2023-05-04T12:15:47.939Z,95456.19
2023-05-04T12:18:23.237Z,95448.09
2023-05-04T12:20:51.829Z,95448.59
2023-05-04T12:23:20.122Z,95434.06
2023-05-04T12:25:57.786Z,95443.81
2023-05-04T12:28:27.862Z,95432.66
2023-05-04T12:30:56.299Z,95342.94
2023-05-04T12:33:24.999Z,95431.19
2023-05-04T12:35:53.564Z,95423.63
2023-05-04T12:38:23.285Z,95450.59
2023-05-04T12:40:53.213Z,95425.28
2023-05-04T12:43:23.198Z,95425.03
2023-05-04T12:45:52.234Z,95419.88
2023-05-04T12:48:21.663Z,95364.72
2023-05-04T12:50:51.090Z,95415.81
2023-05-04T12:53:22.385Z,95415.03
2023-05-04T12:55:50.636Z,95410.69
2023-05-04T12:58:20.485Z,95407.88
2023-05-04T13:00:48.911Z,95406.72
2023-05-04T13:03:18.229Z,95405.31
2023-05-04T13:05:47.605Z,95411.16
2023-05-04T13:08:15.863Z,95415.56
2023-05-04T13:10:46.292Z,95412.13
2023-05-04T13:13:16.364Z,95410.19
2023-05-04T13:15:46.196Z,95399.13
2023-05-04T13:18:14.513Z,95413.47
2023-05-04T13:20:42.868Z,95424.16
2023-05-04T13:23:11.171Z,95415.31
2023-05-04T13:25:39.653Z,95407.09
2023-05-04T13:28:07.901Z,95418.25
2023-05-04T13:30:36.175Z,95417.50
2023-05-04T13:33:16.797Z,95411.19
2023-05-04T13:35:49.635Z,95407.00
2023-05-04T13:38:18.013Z,95408.97
2023-05-04T13:40:46.347Z,95403.41
2023-05-04T13:43:15.563Z,95400.75
2023-05-04T13:45:43.909Z,95409.16
2023-05-04T13:48:13.601Z,95400.16
2023-05-04T13:50:42.175Z,95400.63
2023-05-04T13:53:11.387Z,95355.75
2023-05-04T13:55:40.824Z,95326.13
2023-05-04T13:58:09.131Z,95406.13
2023-05-04T14:00:38.287Z,95387.25
2023-05-04T14:03:06.749Z,95346.41
2023-05-04T14:05:36.664Z,95408.13
2023-05-04T14:08:05.040Z,95396.25
2023-05-04T14:10:34.538Z,95406.63
2023-05-04T14:13:04.411Z,95400.19
2023-05-04T14:15:33.033Z,95405.31
2023-05-04T14:18:01.426Z,95403.34
2023-05-04T14:20:29.880Z,95405.53
2023-05-04T14:22:59.582Z,95413.28
2023-05-04T14:25:27.907Z,95397.56
2023-05-04T14:27:56.247Z,95323.31
2023-05-04T14:30:24.787Z,95389.44
2023-05-04T14:32:55.285Z,95393.91
2023-05-04T14:35:23.778Z,95393.72
2023-05-04T14:37:52.137Z,95391.25
2023-05-04T14:40:21.857Z,95321.84
2023-05-04T14:42:50.128Z,95389.34
2023-05-04T14:45:18.609Z,95399.81
2023-05-04T14:47:47.436Z,95403.34
2023-05-04T14:50:15.745Z,95406.88
2023-05-04T14:52:44.144Z,95388.03
2023-05-04T14:55:12.555Z,95387.03
2023-05-04T14:57:42.688Z,95305.19
2023-05-04T15:00:12.178Z,95390.69
2023-05-04T15:02:40.613Z,95401.81
2023-05-04T15:05:12.888Z,95409.84
2023-05-04T15:07:41.411Z,95318.69
2023-05-04T15:10:11.366Z,95387.28
2023-05-04T15:12:41.425Z,95405.16
2023-05-04T15:15:10.503Z,95403.81
2023-05-04T15:17:38.837Z,95402.38
2023-05-04T15:20:09.743Z,95355.34
2023-05-04T15:22:38.402Z,95408.91
2023-05-04T15:25:07.110Z,95396.53
2023-05-04T15:27:35.581Z,95397.16
2023-05-04T15:30:06.544Z,95398.31
2023-05-04T15:32:34.919Z,95394.84
2023-05-04T15:35:05.915Z,95391.69
2023-05-04T15:37:34.946Z,95396.13
2023-05-04T15:40:04.702Z,95392.31
2023-05-04T15:42:33.447Z,95396.59
2023-05-04T15:45:02.114Z,95391.16
2023-05-04T15:47:32.346Z,95392.22
2023-05-04T15:50:00.692Z,95394.34
2023-05-04T15:52:29.051Z,95392.56
2023-05-04T15:54:57.569Z,95387.06
2023-05-04T15:57:26.358Z,95401.22
2023-05-04T15:59:55.855Z,95404.22
2023-05-04T16:02:24.334Z,95388.47
2023-05-04T16:04:54.039Z,95400.59
2023-05-04T16:07:22.306Z,95411.19
2023-05-04T16:09:50.529Z,95400.81
2023-05-04T16:12:20.574Z,95353.16
2023-05-04T16:14:49.146Z,95401.34
2023-05-04T16:17:17.726Z,95405.88
2023-05-04T16:19:45.958Z,95402.56
2023-05-04T16:22:15.930Z,95408.78
2023-05-04T16:24:44.220Z,95406.72
2023-05-04T16:27:12.653Z,95410.91
2023-05-04T16:29:40.969Z,95422.53
2023-05-04T16:32:09.599Z,95355.41
2023-05-04T16:34:37.792Z,95414.97
2023-05-04T16:37:06.171Z,95389.53
2023-05-04T16:39:37.739Z,95423.56
2023-05-04T16:42:06.347Z,95429.34
2023-05-04T16:44:34.636Z,95427.91
2023-05-04T16:47:02.942Z,95431.97
2023-05-04T16:49:32.293Z,95434.75
2023-05-04T16:52:00.562Z,95443.84
2023-05-04T16:54:28.920Z,95438.06
2023-05-04T16:56:58.671Z,95417.84
2023-05-04T16:59:27.057Z,95448.44
2023-05-04T17:01:55.590Z,95449.47
2023-05-04T17:04:25.330Z,95462.34
2023-05-04T17:06:53.598Z,95469.25
2023-05-04T17:09:21.956Z,95476.09
2023-05-04T17:11:50.333Z,95477.38
2023-05-04T17:14:19.980Z,95481.53
2023-05-04T17:16:48.334Z,95487.00
2023-05-04T17:19:16.618Z,95417.47
2023-05-04T17:21:44.913Z,95498.06
2023-05-04T17:24:13.230Z,95493.31
2023-05-04T17:26:41.539Z,95501.13
2023-05-04T17:29:09.901Z,95512.06
2023-05-04T17:31:39.820Z,95512.31
2023-05-04T17:34:08.160Z,95511.75
2023-05-04T17:36:36.399Z,95519.47
2023-05-04T17:39:04.813Z,95518.28
2023-05-04T17:41:33.114Z,95523.09
2023-05-04T17:44:01.465Z,95522.91
2023-05-04T17:46:30.789Z,95532.50
2023-05-04T17:49:00.499Z,95536.69
2023-05-04T17:51:28.718Z,95525.47
2023-05-04T17:53:57.089Z,95535.59
2023-05-04T17:56:25.367Z,95548.56
2023-05-04T17:58:53.593Z,95548.19
2023-05-04T18:01:22.078Z,95553.94
2023-05-04T18:03:50.563Z,95560.75
2023-05-04T18:06:20.389Z,95558.44
2023-05-04T18:08:48.713Z,95561.41
2023-05-04T18:11:17.045Z,95571.91
2023-05-04T18:13:45.272Z,95575.78
2023-05-04T18:16:13.830Z,95573.00
2023-05-04T18:18:42.128Z,95576.06
2023-05-04T18:21:10.433Z,95573.31
2023-05-04T18:23:40.099Z,95582.47
2023-05-04T18:26:08.418Z,95584.88
2023-05-04T18:28:36.741Z,95547.53
2023-05-04T18:31:05.403Z,95586.19
2023-05-04T18:33:34.918Z,95587.94
2023-05-04T18:36:03.595Z,95589.75
2023-05-04T18:38:31.995Z,95593.66
2023-05-04T18:41:01.744Z,95593.06
2023-05-04T18:43:30.096Z,95596.53
2023-05-04T18:45:58.531Z,95532.00
2023-05-04T18:48:26.796Z,95605.59
2023-05-04T18:50:57.405Z,95598.97
2023-05-04T18:53:26.445Z,95604.59
2023-05-04T18:56:06.069Z,95603.91
2023-05-04T18:58:34.462Z,95597.09
2023-05-04T19:01:02.772Z,95615.72
2023-05-04T19:03:31.178Z,95615.06
2023-05-04T19:05:59.733Z,95620.25
2023-05-04T19:08:28.558Z,95617.38
2023-05-04T19:10:59.306Z,95618.09
2023-05-04T19:13:29.314Z,95627.03
2023-05-04T19:15:57.590Z,95623.50
2023-05-04T19:18:25.962Z,95619.69
2023-05-04T19:20:54.927Z,95622.34
2023-05-04T19:23:23.169Z,95626.44
2023-05-04T19:25:51.627Z,95629.13
2023-05-04T19:28:20.028Z,95630.50
2023-05-04T19:30:49.954Z,95633.16
2023-05-04T19:33:18.173Z,95626.06
2023-05-04T19:35:46.489Z,95626.41
2023-05-04T19:38:14.875Z,95621.38
2023-05-04T19:40:43.365Z,95623.03
2023-05-04T19:43:11.792Z,95618.22
2023-05-04T19:45:41.108Z,95608.69
2023-05-04T19:48:11.100Z,95635.72
2023-05-04T19:50:39.317Z,95620.94
2023-05-04T19:53:07.733Z,95621.84
2023-05-04T19:55:36.366Z,95624.59
2023-05-04T19:58:04.966Z,95559.97
2023-05-04T20:00:33.617Z,95610.28
2023-05-04T20:03:02.013Z,95612.94
2023-05-04T20:05:31.793Z,95614.84
2023-05-04T20:08:02.109Z,95599.41
2023-05-04T20:10:31.711Z,95613.28
2023-05-04T20:13:00.046Z,95623.06
2023-05-04T20:15:28.454Z,95614.44
2023-05-04T20:17:56.962Z,95615.44
2023-05-04T20:20:25.262Z,95618.78
2023-05-04T20:22:56.217Z,95609.81
2023-05-04T20:25:25.314Z,95616.69
2023-05-04T20:27:54.167Z,95612.06
2023-05-04T20:30:22.518Z,95615.81
2023-05-04T20:32:50.903Z,95610.19
2023-05-04T20:35:19.341Z,95617.59
2023-05-04T20:37:47.959Z,95613.34
2023-05-04T20:40:18.402Z,95614.81
2023-05-04T20:42:46.782Z,95616.34
2023-05-04T20:45:15.076Z,95612.16
2023-05-04T20:47:43.571Z,95609.78
2023-05-04T20:50:12.934Z,95609.28
2023-05-04T20:52:41.440Z,95601.03
2023-05-04T20:55:10.511Z,95560.13
2023-05-04T20:57:40.337Z,95579.13
2023-05-04T21:00:09.970Z,95596.03
2023-05-04T21:02:38.440Z,95601.09
2023-05-04T21:05:07.661Z,95608.25
2023-05-04T21:07:36.005Z,95607.56
2023-05-04T21:10:05.127Z,95610.72
2023-05-04T21:12:33.469Z,95603.94
2023-05-04T21:15:03.142Z,95585.56
2023-05-04T21:17:31.402Z,95558.28
2023-05-04T21:19:59.776Z,95599.56
2023-05-04T21:22:29.070Z,95608.25
2023-05-04T21:24:57.339Z,95603.69
2023-05-04T21:27:25.759Z,95598.91
2023-05-04T21:29:53.920Z,95601.28
2023-05-04T21:32:23.661Z,95602.88
2023-05-04T21:34:53.584Z,95614.50
2023-05-04T21:37:21.980Z,95609.22
2023-05-04T21:39:55.229Z,95596.78
2023-05-04T21:42:23.471Z,95616.34
2023-05-04T21:44:55.250Z,95604.69
2023-05-04T21:47:25.437Z,95608.56
2023-05-04T21:49:54.309Z,95563.81
2023-05-04T21:52:22.956Z,95619.06
2023-05-04T21:54:51.467Z,95613.13
2023-05-04T21:57:20.932Z,95606.00
2023-05-04T21:59:49.832Z,95614.06
2023-05-04T22:02:18.372Z,95614.31
2023-05-04T22:04:48.028Z,95618.09
2023-05-04T22:07:16.734Z,95616.88
2023-05-04T22:09:45.011Z,95616.44
2023-05-04T22:12:13.331Z,95611.16
2023-05-04T22:14:42.534Z,95616.47
2023-05-04T22:17:11.079Z,95617.00
2023-05-04T22:19:39.520Z,95608.63
2023-05-04T22:22:09.154Z,95613.06
2023-05-04T22:24:37.434Z,95602.31
2023-05-04T22:27:06.248Z,95603.91
2023-05-04T22:29:35.778Z,95599.66
2023-05-04T22:32:04.327Z,95589.31
2023-05-04T22:34:32.630Z,95590.16
2023-05-04T22:37:01.361Z,95583.06
2023-05-04T22:39:31.001Z,95583.63
2023-05-04T22:41:59.288Z,95583.81
2023-05-04T22:44:27.597Z,95591.50
2023-05-04T22:46:56.017Z,95592.91
2023-05-04T22:49:24.241Z,95581.50
2023-05-04T22:51:52.617Z,95578.19
2023-05-04T22:54:20.871Z,95584.06
2023-05-04T22:56:51.156Z,95564.25
2023-05-04T22:59:19.415Z,95571.75
2023-05-04T23:01:47.784Z,95560.66
2023-05-04T23:04:16.534Z,95564.38
2023-05-04T23:06:45.053Z,95566.16
2023-05-04T23:09:14.858Z,95566.50
2023-05-04T23:11:43.203Z,95559.59
2023-05-04T23:14:13.059Z,95558.72
2023-05-04T23:16:41.347Z,95564.53
2023-05-04T23:19:09.591Z,95521.81
2023-05-04T23:21:39.715Z,95551.72
2023-05-04T23:24:08.529Z,95543.72
2023-05-04T23:26:36.804Z,95547.19
2023-05-04T23:29:05.105Z,95536.09
2023-05-04T23:31:34.815Z,95550.00
2023-05-04T23:34:03.126Z,95549.75
2023-05-04T23:36:31.309Z,95558.31
2023-05-04T23:38:59.619Z,95559.69
2023-05-04T23:41:27.951Z,95555.09
2023-05-04T23:43:56.642Z,95559.81
2023-05-04T23:46:24.869Z,95559.19
2023-05-04T23:48:54.589Z,95552.06
2023-05-04T23:51:22.784Z,95555.03
2023-05-04T23:53:51.043Z,95558.28
2023-05-04T23:56:19.281Z,95501.88
2023-05-04T23:58:47.560Z,95562.59
